createdAt,value
2017-08-03T00:00:53.309Z,20.12
2017-08-03T00:01:53.310Z,20.10
2017-08-03T00:02:53.313Z,20.07
2017-08-03T00:03:53.314Z,20.02
2017-08-03T00:04:53.323Z,20.00
2017-08-03T00:05:53.322Z,20.00
2017-08-03T00:06:53.325Z,20.00
2017-08-03T00:07:53.335Z,20.00
2017-08-03T00:08:53.331Z,20.00
2017-08-03T00:09:53.334Z,19.96
2017-08-03T00:10:53.344Z,19.93
2017-08-03T00:11:53.341Z,19.90
2017-08-03T00:12:53.342Z,19.88
2017-08-03T00:13:53.347Z,19.81
2017-08-03T00:14:53.345Z,19.77
2017-08-03T00:15:53.348Z,19.77
2017-08-03T00:38:34.299Z,19.56
2017-08-03T00:38:53.421Z,19.56
2017-08-03T00:39:53.420Z,19.56
2017-08-03T00:40:53.423Z,19.55
2017-08-03T00:41:53.424Z,19.55
2017-08-03T00:42:53.429Z,19.58
2017-08-03T00:43:53.428Z,19.59
2017-08-03T00:44:53.435Z,19.59
2017-08-03T00:45:53.435Z,19.58
2017-08-03T00:46:53.442Z,19.58
2017-08-03T00:47:53.440Z,19.60
2017-08-03T00:48:53.444Z,19.61
2017-08-03T00:49:53.447Z,19.57
2017-08-03T00:50:53.449Z,19.54
2017-08-03T00:51:53.449Z,19.53
2017-08-03T00:52:53.455Z,19.53
2017-08-03T00:53:53.463Z,19.52
2017-08-03T00:54:53.464Z,19.45
2017-08-03T00:55:53.466Z,19.37
2017-08-03T00:56:53.465Z,19.36
2017-08-03T00:57:53.469Z,19.34
2017-08-03T00:58:53.471Z,19.29
2017-08-03T00:59:53.473Z,19.27
2017-08-03T01:02:33.937Z,19.30
2017-08-03T01:02:35.051Z,19.30
2017-08-03T01:02:53.483Z,19.30
2017-08-03T01:05:49.931Z,19.29
2017-08-03T01:05:52.065Z,19.28
2017-08-03T01:05:53.493Z,19.28
2017-08-03T01:09:02.149Z,19.32
2017-08-03T01:09:03.288Z,19.34
2017-08-03T01:09:03.994Z,19.30
2017-08-03T01:11:43.009Z,19.29
2017-08-03T01:11:44.327Z,19.30
2017-08-03T01:11:53.507Z,19.30
2017-08-03T01:14:33.146Z,19.29
2017-08-03T01:14:34.490Z,19.30
2017-08-03T01:14:53.520Z,19.36
2017-08-03T01:17:43.970Z,19.34
2017-08-03T01:17:44.933Z,19.35
2017-08-03T01:17:53.526Z,19.36
2017-08-03T01:20:31.212Z,19.37
2017-08-03T01:20:32.019Z,19.35
2017-08-03T01:20:53.532Z,19.33
2017-08-03T01:23:44.934Z,19.33
2017-08-03T01:23:45.991Z,19.34
2017-08-03T01:23:53.545Z,19.32
2017-08-03T01:27:07.092Z,19.31
2017-08-03T01:27:08.335Z,19.31
2017-08-03T01:27:08.978Z,19.29
2017-08-03T01:29:45.930Z,19.28
2017-08-03T01:29:47.249Z,19.27
2017-08-03T01:29:53.562Z,19.30
2017-08-03T01:32:30.881Z,19.31
2017-08-03T01:32:31.774Z,19.33
2017-08-03T01:32:53.572Z,19.34
2017-08-03T01:35:51.035Z,19.36
2017-08-03T01:35:52.888Z,19.36
2017-08-03T01:35:53.580Z,19.38
2017-08-03T01:39:17.015Z,19.42
2017-08-03T01:39:18.159Z,19.43
2017-08-03T01:39:18.767Z,19.46
2017-08-03T01:39:53.592Z,19.47
2017-08-03T01:40:53.592Z,19.51
2017-08-03T01:41:53.598Z,19.52
2017-08-03T01:44:31.178Z,19.51
2017-08-03T01:44:32.600Z,19.52
2017-08-03T01:44:53.601Z,19.54
2017-08-03T01:47:47.935Z,19.56
2017-08-03T01:47:50.450Z,19.54
2017-08-03T01:47:53.610Z,19.52
2017-08-03T01:50:31.130Z,19.50
2017-08-03T01:50:32.507Z,19.49
2017-08-03T01:50:53.620Z,19.50
2017-08-03T01:53:47.893Z,19.51
2017-08-03T01:53:50.298Z,19.51
2017-08-03T01:53:53.644Z,19.52
2017-08-03T01:57:03.166Z,19.47
2017-08-03T01:57:04.349Z,19.43
2017-08-03T01:57:05.059Z,19.44
2017-08-03T01:59:47.916Z,19.43
2017-08-03T01:59:50.035Z,19.42
2017-08-03T01:59:53.649Z,19.46
2017-08-03T02:00:53.654Z,19.48
2017-08-03T02:01:53.654Z,19.49
2017-08-03T02:02:53.661Z,19.50
2017-08-03T02:03:53.664Z,19.45
2017-08-03T02:04:53.661Z,19.44
2017-08-03T02:05:53.666Z,19.44
2017-08-03T02:06:53.664Z,19.42
2017-08-03T02:07:53.671Z,19.40
2017-08-03T02:08:53.671Z,19.41
2017-08-03T02:09:53.678Z,19.40
2017-08-03T02:10:53.678Z,19.36
2017-08-03T02:11:53.682Z,19.32
2017-08-03T02:12:53.688Z,19.31
2017-08-03T02:13:53.691Z,19.29
2017-08-03T02:14:53.692Z,19.26
2017-08-03T02:15:53.692Z,19.24
2017-08-03T02:16:53.697Z,19.22
2017-08-03T02:17:53.699Z,19.24
2017-08-03T02:18:53.704Z,19.26
2017-08-03T02:19:53.708Z,19.28
2017-08-03T02:20:53.712Z,19.29
2017-08-03T02:21:53.710Z,19.31
2017-08-03T02:22:53.714Z,19.33
2017-08-03T02:23:53.718Z,19.34
2017-08-03T02:24:53.720Z,19.35
2017-08-03T02:25:53.728Z,19.36
2017-08-03T02:26:53.726Z,19.36
2017-08-03T02:27:53.731Z,19.33
2017-08-03T02:28:53.731Z,19.34
2017-08-03T02:29:53.736Z,19.32
2017-08-03T02:30:53.735Z,19.27
2017-08-03T02:31:53.742Z,19.25
2017-08-03T02:32:53.746Z,19.22
2017-08-03T02:33:53.749Z,19.17
2017-08-03T02:34:53.750Z,19.16
2017-08-03T02:35:53.751Z,19.12
2017-08-03T02:36:53.752Z,19.07
2017-08-03T02:37:53.758Z,19.06
2017-08-03T02:38:53.761Z,19.05
2017-08-03T02:39:53.767Z,19.04
2017-08-03T02:40:53.766Z,19.04
2017-08-03T02:41:53.769Z,19.03
2017-08-03T02:42:53.772Z,19.02
2017-08-03T02:43:53.777Z,19.02
2017-08-03T02:44:53.777Z,19.03
2017-08-03T02:45:53.781Z,19.06
2017-08-03T02:46:53.784Z,19.06
2017-08-03T02:47:53.787Z,19.07
2017-08-03T02:48:53.786Z,19.07
2017-08-03T02:49:53.791Z,19.06
2017-08-03T02:50:53.790Z,19.05
2017-08-03T02:51:53.795Z,19.05
2017-08-03T02:52:53.799Z,19.06
2017-08-03T02:53:53.804Z,19.09
2017-08-03T02:54:53.807Z,19.11
2017-08-03T02:55:53.807Z,19.13
2017-08-03T02:56:53.813Z,19.16
2017-08-03T02:57:53.813Z,19.20
2017-08-03T02:58:53.817Z,19.23
2017-08-03T02:59:53.827Z,19.27
2017-08-03T03:00:53.820Z,19.32
2017-08-03T03:01:53.824Z,19.37
2017-08-03T03:02:53.827Z,19.40
2017-08-03T03:03:53.830Z,19.43
2017-08-03T03:04:53.830Z,19.44
2017-08-03T03:05:53.836Z,19.44
2017-08-03T03:06:53.840Z,19.44
2017-08-03T03:07:53.843Z,19.44
2017-08-03T03:08:53.842Z,19.40
2017-08-03T03:09:53.917Z,19.39
2017-08-03T03:10:53.851Z,19.38
2017-08-03T03:11:53.855Z,19.36
2017-08-03T03:12:53.856Z,19.35
2017-08-03T03:15:49.868Z,19.37
2017-08-03T03:15:51.643Z,19.39
2017-08-03T03:15:53.872Z,19.41
2017-08-03T03:16:53.869Z,19.43
2017-08-03T03:17:53.871Z,19.44
2017-08-03T03:18:53.876Z,19.47
2017-08-03T03:19:53.876Z,19.49
2017-08-03T03:20:53.882Z,19.50
2017-08-03T03:21:53.879Z,19.51
2017-08-03T03:22:53.885Z,19.53
2017-08-03T03:23:53.885Z,19.52
2017-08-03T03:24:53.903Z,19.53
2017-08-03T03:25:53.890Z,19.54
2017-08-03T03:26:53.905Z,19.55
2017-08-03T03:27:53.897Z,19.56
2017-08-03T03:28:53.897Z,19.57
2017-08-03T03:29:53.905Z,19.59
2017-08-03T03:30:53.905Z,19.59
2017-08-03T03:31:53.908Z,19.60
2017-08-03T03:32:53.913Z,19.61
2017-08-03T03:33:53.920Z,19.60
2017-08-03T03:34:53.916Z,19.60
2017-08-03T03:35:53.920Z,19.60
2017-08-03T03:36:53.922Z,19.60
2017-08-03T03:37:53.928Z,19.62
2017-08-03T03:38:53.930Z,19.63
2017-08-03T03:39:53.932Z,19.63
2017-08-03T03:40:53.932Z,19.63
2017-08-03T03:41:53.942Z,19.63
2017-08-03T03:42:53.943Z,19.64
2017-08-03T03:43:53.942Z,19.64
2017-08-03T03:44:53.945Z,19.65
2017-08-03T03:45:53.949Z,19.65
2017-08-03T03:46:53.957Z,19.65
2017-08-03T03:47:53.956Z,19.64
2017-08-03T03:48:53.958Z,19.64
2017-08-03T03:49:53.962Z,19.65
2017-08-03T03:50:53.963Z,19.66
2017-08-03T03:51:53.964Z,19.66
2017-08-03T03:52:53.973Z,19.66
2017-08-03T03:53:53.969Z,19.66
2017-08-03T03:54:53.974Z,19.66
2017-08-03T03:55:53.976Z,19.66
2017-08-03T03:56:53.980Z,19.65
2017-08-03T03:57:53.984Z,19.67
2017-08-03T03:58:53.987Z,19.69
2017-08-03T03:59:53.992Z,19.70
2017-08-03T04:00:53.993Z,19.72
2017-08-03T04:01:53.998Z,19.73
2017-08-03T04:02:54.003Z,19.74
2017-08-03T04:03:54.011Z,19.75
2017-08-03T04:04:54.007Z,19.74
2017-08-03T04:05:54.010Z,19.75
2017-08-03T04:06:54.010Z,19.76
2017-08-03T04:07:54.013Z,19.74
2017-08-03T04:08:54.018Z,19.73
2017-08-03T04:09:54.019Z,19.73
2017-08-03T04:10:54.044Z,19.71
2017-08-03T04:11:54.028Z,19.69
2017-08-03T04:12:54.028Z,19.70
2017-08-03T04:13:54.030Z,19.70
2017-08-03T04:14:54.034Z,19.72
2017-08-03T04:15:54.037Z,19.73
2017-08-03T04:16:54.040Z,19.74
2017-08-03T04:17:54.040Z,19.75
2017-08-03T04:18:54.043Z,19.76
2017-08-03T04:19:54.055Z,19.76
2017-08-03T04:20:54.051Z,19.76
2017-08-03T04:21:54.053Z,19.76
2017-08-03T04:22:54.053Z,19.76
2017-08-03T04:23:54.057Z,19.77
2017-08-03T04:24:54.062Z,19.75
2017-08-03T04:25:54.065Z,19.76
2017-08-03T04:26:54.067Z,19.77
2017-08-03T04:27:54.072Z,19.76
2017-08-03T04:28:54.083Z,19.78
2017-08-03T04:29:54.076Z,19.81
2017-08-03T04:30:54.079Z,19.81
2017-08-03T04:31:54.082Z,19.83
2017-08-03T04:32:54.091Z,19.83
2017-08-03T04:33:54.089Z,19.84
2017-08-03T04:34:54.094Z,19.86
2017-08-03T04:35:54.097Z,19.88
2017-08-03T04:36:54.097Z,19.90
2017-08-03T04:37:54.097Z,19.93
2017-08-03T04:38:54.102Z,19.93
2017-08-03T04:39:54.105Z,19.95
2017-08-03T04:40:54.108Z,19.97
2017-08-03T04:41:54.110Z,19.98
2017-08-03T04:42:54.112Z,20.02
2017-08-03T04:43:54.117Z,20.02
2017-08-03T04:44:54.121Z,20.03
2017-08-03T04:45:54.123Z,20.04
2017-08-03T04:46:54.126Z,20.05
2017-08-03T04:47:54.130Z,20.08
2017-08-03T04:48:54.128Z,20.08
2017-08-03T04:49:54.133Z,20.10
2017-08-03T04:50:54.136Z,20.11
2017-08-03T04:51:54.140Z,20.12
2017-08-03T04:52:54.141Z,20.13
2017-08-03T04:53:54.145Z,20.12
2017-08-03T04:54:54.148Z,20.10
2017-08-03T04:55:54.149Z,20.10
2017-08-03T04:56:54.156Z,20.11
2017-08-03T04:57:54.156Z,20.12
2017-08-03T04:58:54.163Z,20.14
2017-08-03T04:59:54.161Z,20.16
2017-08-03T05:00:54.167Z,20.16
2017-08-03T05:01:54.168Z,20.19
2017-08-03T05:02:54.171Z,20.20
2017-08-03T05:03:54.173Z,20.21
2017-08-03T05:04:54.176Z,20.19
2017-08-03T05:05:54.178Z,20.17
2017-08-03T05:06:54.182Z,20.19
2017-08-03T05:07:54.185Z,20.18
2017-08-03T05:08:54.187Z,20.19
2017-08-03T05:09:54.192Z,20.20
2017-08-03T05:10:54.194Z,20.22
2017-08-03T05:11:54.198Z,20.23
2017-08-03T05:12:54.198Z,20.23
2017-08-03T05:13:54.214Z,20.23
2017-08-03T05:14:54.207Z,20.26
2017-08-03T05:15:54.238Z,20.27
2017-08-03T05:16:54.211Z,20.29
2017-08-03T05:17:54.215Z,20.33
2017-08-03T05:18:54.217Z,20.34
2017-08-03T05:19:54.221Z,20.37
2017-08-03T05:20:54.221Z,20.41
2017-08-03T05:21:54.227Z,20.42
2017-08-03T05:22:54.232Z,20.46
2017-08-03T05:23:54.231Z,20.47
2017-08-03T05:24:54.235Z,20.48
2017-08-03T05:25:54.236Z,20.51
2017-08-03T05:26:54.241Z,20.54
2017-08-03T05:27:54.245Z,20.55
2017-08-03T05:28:54.247Z,20.57
2017-08-03T05:29:54.248Z,20.56
2017-08-03T05:30:54.250Z,20.57
2017-08-03T05:31:54.253Z,20.59
2017-08-03T05:32:54.256Z,20.59
2017-08-03T05:33:54.260Z,20.61
2017-08-03T05:34:54.259Z,20.62
2017-08-03T05:35:54.268Z,20.64
2017-08-03T05:36:54.268Z,20.66
2017-08-03T05:37:54.270Z,20.65
2017-08-03T05:38:54.279Z,20.67
2017-08-03T05:39:54.279Z,20.67
2017-08-03T05:43:22.890Z,20.69
2017-08-03T05:43:24.325Z,20.69
2017-08-03T05:43:25.033Z,20.68
2017-08-03T05:43:54.286Z,20.69
2017-08-03T05:44:54.291Z,20.70
2017-08-03T05:45:54.293Z,20.71
2017-08-03T05:46:54.293Z,20.73
2017-08-03T05:47:54.306Z,20.76
2017-08-03T05:48:54.300Z,20.75
2017-08-03T05:49:54.306Z,20.78
2017-08-03T05:50:54.305Z,20.79
2017-08-03T05:51:54.309Z,20.80
2017-08-03T05:52:54.316Z,20.82
2017-08-03T05:53:54.319Z,20.83
2017-08-03T05:54:54.317Z,20.85
2017-08-03T05:55:54.321Z,20.87
2017-08-03T05:56:54.325Z,20.89
2017-08-03T05:57:54.326Z,20.93
2017-08-03T05:58:54.329Z,20.95
2017-08-03T05:59:54.334Z,20.97
2017-08-03T06:00:54.334Z,21.00
2017-08-03T06:01:54.339Z,21.01
2017-08-03T06:02:54.340Z,21.05
2017-08-03T06:03:54.347Z,21.09
2017-08-03T06:04:54.350Z,21.11
2017-08-03T06:05:54.367Z,21.14
2017-08-03T06:06:54.353Z,21.17
2017-08-03T06:07:54.360Z,21.21
2017-08-03T06:08:54.357Z,21.22
2017-08-03T06:09:54.363Z,21.23
2017-08-03T06:10:54.364Z,21.24
2017-08-03T06:11:54.369Z,21.24
2017-08-03T06:12:54.371Z,21.24
2017-08-03T06:13:54.377Z,21.23
2017-08-03T06:14:54.375Z,21.22
2017-08-03T06:15:54.381Z,21.22
2017-08-03T06:16:54.386Z,21.22
2017-08-03T06:17:54.390Z,21.21
2017-08-03T06:18:54.387Z,21.20
2017-08-03T06:19:54.389Z,21.20
2017-08-03T06:20:54.395Z,21.20
2017-08-03T06:21:54.396Z,21.19
2017-08-03T06:22:54.396Z,21.17
2017-08-03T06:23:54.401Z,21.16
2017-08-03T06:24:54.405Z,21.17
2017-08-03T06:25:54.406Z,21.16
2017-08-03T06:26:54.409Z,21.17
2017-08-03T06:27:54.415Z,21.16
2017-08-03T06:28:54.414Z,21.16
2017-08-03T06:29:54.421Z,21.15
2017-08-03T06:30:54.426Z,21.15
2017-08-03T06:31:54.424Z,21.14
2017-08-03T06:32:54.427Z,21.13
2017-08-03T06:33:54.434Z,21.13
2017-08-03T06:34:54.433Z,21.12
2017-08-03T06:35:54.434Z,21.12
2017-08-03T06:36:54.437Z,21.11
2017-08-03T06:37:54.450Z,21.11
2017-08-03T06:38:54.444Z,21.08
2017-08-03T06:39:54.448Z,21.06
2017-08-03T06:40:54.451Z,21.05
2017-08-03T06:41:54.455Z,21.02
2017-08-03T06:42:54.457Z,21.00
2017-08-03T06:43:54.460Z,20.98
2017-08-03T06:44:54.462Z,20.96
2017-08-03T06:45:54.465Z,20.94
2017-08-03T06:46:54.467Z,20.93
2017-08-03T06:47:54.470Z,20.94
2017-08-03T06:48:54.473Z,20.95
2017-08-03T06:49:54.479Z,20.94
2017-08-03T06:50:54.478Z,20.93
2017-08-03T06:51:54.480Z,20.90
2017-08-03T06:52:54.492Z,20.86
2017-08-03T06:53:54.490Z,20.83
2017-08-03T06:54:54.517Z,20.82
2017-08-03T06:55:54.494Z,20.81
2017-08-03T06:56:54.497Z,20.78
2017-08-03T06:57:54.503Z,20.77
2017-08-03T06:58:54.501Z,20.77
2017-08-03T06:59:54.503Z,20.77
2017-08-03T07:00:54.509Z,20.77
2017-08-03T07:01:54.513Z,20.78
2017-08-03T07:02:54.511Z,20.81
2017-08-03T07:03:54.556Z,20.82
2017-08-03T07:04:54.521Z,20.83
2017-08-03T07:05:54.523Z,20.83
2017-08-03T07:06:54.523Z,20.84
2017-08-03T07:07:54.531Z,20.85
2017-08-03T07:08:54.600Z,20.87
2017-08-03T07:09:54.669Z,20.88
2017-08-03T07:10:54.543Z,20.90
2017-08-03T07:11:54.545Z,20.90
2017-08-03T07:12:54.542Z,20.90
2017-08-03T07:13:54.551Z,20.91
2017-08-03T07:14:54.547Z,20.91
2017-08-03T07:15:54.554Z,20.93
2017-08-03T07:17:11.667Z,20.94
2017-08-03T07:17:54.559Z,20.96
2017-08-03T07:18:54.558Z,20.97
2017-08-03T07:19:54.563Z,21.00
2017-08-03T07:20:54.565Z,21.01
2017-08-03T07:21:54.572Z,21.05
2017-08-03T07:22:54.569Z,21.07
2017-08-03T07:23:54.575Z,21.08
2017-08-03T07:24:54.577Z,21.11
2017-08-03T07:25:54.583Z,21.12
2017-08-03T07:26:54.582Z,21.13
2017-08-03T07:27:54.587Z,21.16
2017-08-03T07:28:54.591Z,21.18
2017-08-03T07:29:54.591Z,21.19
2017-08-03T07:30:54.593Z,21.18
2017-08-03T07:31:54.599Z,21.20
2017-08-03T07:32:54.598Z,21.17
2017-08-03T07:33:54.602Z,21.16
2017-08-03T07:34:54.611Z,21.16
2017-08-03T07:35:54.611Z,21.17
2017-08-03T07:36:54.609Z,21.18
2017-08-03T07:37:54.629Z,21.16
2017-08-03T07:38:54.624Z,21.15
2017-08-03T07:39:54.622Z,21.14
2017-08-03T07:40:54.619Z,21.13
2017-08-03T07:41:54.719Z,21.13
2017-08-03T07:42:54.650Z,21.13
2017-08-03T07:43:54.627Z,21.13
2017-08-03T07:44:54.630Z,21.13
2017-08-03T07:45:54.636Z,21.16
2017-08-03T07:46:54.638Z,21.16
2017-08-03T07:47:54.641Z,21.17
2017-08-03T07:48:54.642Z,21.20
2017-08-03T07:52:14.296Z,21.22
2017-08-03T07:52:15.428Z,21.22
2017-08-03T07:52:16.036Z,21.22
2017-08-03T07:52:54.652Z,21.20
2017-08-03T07:55:39.535Z,21.22
2017-08-03T07:55:40.789Z,21.23
2017-08-03T07:55:54.662Z,21.27
2017-08-03T07:56:54.666Z,21.29
2017-08-03T07:57:54.670Z,21.30
2017-08-03T07:58:54.673Z,21.33
2017-08-03T07:59:54.679Z,21.33
2017-08-03T08:00:54.683Z,21.35
2017-08-03T08:01:54.683Z,21.37
2017-08-03T08:02:54.686Z,21.39
2017-08-03T08:03:54.690Z,21.40
2017-08-03T08:04:54.688Z,21.41
2017-08-03T08:05:54.698Z,21.44
2017-08-03T08:06:54.702Z,21.45
2017-08-03T08:07:54.697Z,21.46
2017-08-03T08:08:54.700Z,21.46
2017-08-03T08:09:54.702Z,21.46
2017-08-03T08:10:54.709Z,21.45
2017-08-03T08:11:54.708Z,21.48
2017-08-03T08:12:54.725Z,21.50
2017-08-03T08:13:54.718Z,21.52
2017-08-03T08:14:54.720Z,21.55
2017-08-03T08:15:54.722Z,21.56
2017-08-03T08:16:54.725Z,21.56
2017-08-03T08:17:54.730Z,21.57
2017-08-03T08:18:54.735Z,21.58
2017-08-03T08:19:54.745Z,21.54
2017-08-03T08:20:54.746Z,21.51
2017-08-03T08:21:54.744Z,21.49
2017-08-03T08:22:54.764Z,21.45
2017-08-03T08:23:55.038Z,21.46
2017-08-03T08:24:54.747Z,21.43
2017-08-03T08:25:54.754Z,21.42
2017-08-03T08:26:54.754Z,21.42
2017-08-03T08:27:54.759Z,21.39
2017-08-03T08:28:54.764Z,21.38
2017-08-03T08:29:54.763Z,21.38
2017-08-03T08:30:54.765Z,21.38
2017-08-03T08:31:54.771Z,21.39
2017-08-03T08:32:54.769Z,21.36
2017-08-03T08:33:54.779Z,21.34
2017-08-03T08:34:54.776Z,21.35
2017-08-03T08:35:54.782Z,21.38
2017-08-03T08:36:54.780Z,21.41
2017-08-03T08:37:54.787Z,21.39
2017-08-03T08:38:54.789Z,21.36
2017-08-03T08:39:54.804Z,21.37
2017-08-03T08:40:54.793Z,21.38
2017-08-03T08:41:54.800Z,21.39
2017-08-03T08:42:54.801Z,21.41
2017-08-03T08:43:54.802Z,21.43
2017-08-03T08:44:54.809Z,21.44
2017-08-03T08:45:54.807Z,21.47
2017-08-03T08:46:54.818Z,21.50
2017-08-03T08:47:54.820Z,21.55
2017-08-03T08:48:54.815Z,21.60
2017-08-03T08:49:54.817Z,21.66
2017-08-03T08:50:54.825Z,21.72
2017-08-03T08:51:54.823Z,21.80
2017-08-03T08:52:54.827Z,21.86
2017-08-03T08:53:54.863Z,21.93
2017-08-03T08:54:54.830Z,21.97
2017-08-03T08:55:54.840Z,22.03
2017-08-03T08:56:54.844Z,22.08
2017-08-03T08:57:54.844Z,22.09
2017-08-03T08:58:54.846Z,22.12
2017-08-03T08:59:54.847Z,22.15
2017-08-03T09:00:54.850Z,22.17
2017-08-03T09:01:54.853Z,22.19
2017-08-03T09:02:54.854Z,22.21
2017-08-03T09:03:54.856Z,22.22
2017-08-03T09:04:54.860Z,22.25
2017-08-03T09:05:54.860Z,22.29
2017-08-03T09:06:54.867Z,22.33
2017-08-03T09:07:54.868Z,22.40
2017-08-03T09:08:54.876Z,22.47
2017-08-03T09:09:54.873Z,22.53
2017-08-03T09:10:54.875Z,22.60
2017-08-03T09:11:54.879Z,22.66
2017-08-03T09:12:54.884Z,22.72
2017-08-03T09:13:54.887Z,22.78
2017-08-03T09:14:54.928Z,22.82
2017-08-03T09:15:54.912Z,22.85
2017-08-03T09:16:54.892Z,22.87
2017-08-03T09:17:54.895Z,22.87
2017-08-03T09:18:54.901Z,22.86
2017-08-03T09:19:54.905Z,22.86
2017-08-03T09:20:54.906Z,22.87
2017-08-03T09:21:54.912Z,22.92
2017-08-03T09:22:54.913Z,22.92
2017-08-03T09:23:54.931Z,22.90
2017-08-03T09:24:54.920Z,22.87
2017-08-03T09:25:54.919Z,22.79
2017-08-03T09:26:54.921Z,22.79
2017-08-03T09:27:54.929Z,22.77
2017-08-03T09:28:54.931Z,22.73
2017-08-03T09:29:54.932Z,22.71
2017-08-03T09:30:54.932Z,22.72
2017-08-03T09:31:54.941Z,22.73
2017-08-03T09:32:54.945Z,22.72
2017-08-03T09:33:54.945Z,22.71
2017-08-03T09:34:54.962Z,22.69
2017-08-03T09:35:54.950Z,22.71
2017-08-03T09:36:54.957Z,22.69
2017-08-03T09:37:54.973Z,22.70
2017-08-03T09:38:54.961Z,22.71
2017-08-03T09:39:54.959Z,22.68
2017-08-03T09:40:54.965Z,22.64
2017-08-03T09:41:54.963Z,22.62
2017-08-03T09:42:54.966Z,22.62
2017-08-03T09:43:54.968Z,22.61
2017-08-03T09:44:54.971Z,22.61
2017-08-03T09:45:54.976Z,22.63
2017-08-03T09:46:54.987Z,22.63
2017-08-03T09:49:43.563Z,22.65
2017-08-03T09:49:54.991Z,22.65
2017-08-03T09:50:54.992Z,22.66
2017-08-03T09:51:54.996Z,22.71
2017-08-03T09:52:54.995Z,22.73
2017-08-03T09:53:55.002Z,22.76
2017-08-03T09:54:55.005Z,22.78
2017-08-03T09:55:55.008Z,22.79
2017-08-03T09:56:55.016Z,22.82
2017-08-03T09:57:55.012Z,22.85
2017-08-03T09:58:55.014Z,22.86
2017-08-03T09:59:55.021Z,22.89
2017-08-03T10:00:55.022Z,22.86
2017-08-03T10:01:55.024Z,22.87
2017-08-03T10:02:55.025Z,22.87
2017-08-03T10:03:55.030Z,22.89
2017-08-03T10:04:55.033Z,22.90
2017-08-03T10:05:55.070Z,22.89
2017-08-03T10:06:55.037Z,22.89
2017-08-03T10:07:55.039Z,22.90
2017-08-03T10:08:55.044Z,22.92
2017-08-03T10:09:55.055Z,22.94
2017-08-03T10:10:55.053Z,22.94
2017-08-03T10:11:55.051Z,22.95
2017-08-03T10:12:55.066Z,22.98
2017-08-03T10:13:55.067Z,22.98
2017-08-03T10:14:55.060Z,22.95
2017-08-03T10:15:55.065Z,22.97
2017-08-03T10:16:55.066Z,22.97
2017-08-03T10:17:55.071Z,22.95
2017-08-03T10:18:55.070Z,22.94
2017-08-03T10:19:55.076Z,22.91
2017-08-03T10:20:55.081Z,22.92
2017-08-03T10:21:55.085Z,22.92
2017-08-03T10:22:55.087Z,22.92
2017-08-03T10:23:55.087Z,22.89
2017-08-03T10:24:55.094Z,22.88
2017-08-03T10:25:55.102Z,22.87
2017-08-03T10:26:55.096Z,22.87
2017-08-03T10:27:55.095Z,22.88
2017-08-03T10:28:55.100Z,22.89
2017-08-03T10:29:55.101Z,22.90
2017-08-03T10:30:55.126Z,22.89
2017-08-03T10:31:55.109Z,22.90
2017-08-03T10:32:55.113Z,22.93
2017-08-03T10:33:55.114Z,22.96
2017-08-03T10:34:55.120Z,22.98
2017-08-03T10:35:55.121Z,23.00
2017-08-03T10:36:55.126Z,22.96
2017-08-03T10:37:55.125Z,22.95
2017-08-03T10:38:55.128Z,22.95
2017-08-03T10:39:55.134Z,22.95
2017-08-03T10:40:55.148Z,22.94
2017-08-03T10:41:55.139Z,22.96
2017-08-03T10:42:55.144Z,22.98
2017-08-03T10:43:55.146Z,22.98
2017-08-03T10:44:55.150Z,23.01
2017-08-03T10:45:55.147Z,23.06
2017-08-03T10:46:55.157Z,23.08
2017-08-03T10:47:55.160Z,23.09
2017-08-03T10:48:55.161Z,23.11
2017-08-03T10:49:55.161Z,23.14
2017-08-03T10:50:55.161Z,23.17
2017-08-03T10:51:55.164Z,23.21
2017-08-03T10:52:55.167Z,23.18
2017-08-03T10:53:55.171Z,23.20
2017-08-03T10:54:55.174Z,23.23
2017-08-03T10:55:55.176Z,23.23
2017-08-03T10:56:55.179Z,23.23
2017-08-03T10:57:55.191Z,23.21
2017-08-03T10:58:55.190Z,23.24
2017-08-03T10:59:55.190Z,23.22
2017-08-03T11:00:55.191Z,23.22
2017-08-03T11:01:55.196Z,23.27
2017-08-03T11:02:55.198Z,23.29
2017-08-03T11:03:55.204Z,23.30
2017-08-03T11:04:55.202Z,23.29
2017-08-03T11:05:55.209Z,23.30
2017-08-03T11:06:55.206Z,23.31
2017-08-03T11:07:55.214Z,23.32
2017-08-03T11:08:55.215Z,23.35
2017-08-03T11:09:55.223Z,23.37
2017-08-03T11:10:55.220Z,23.38
2017-08-03T11:11:55.224Z,23.41
2017-08-03T11:12:55.230Z,23.43
2017-08-03T11:13:55.229Z,23.45
2017-08-03T11:14:55.232Z,23.47
2017-08-03T11:15:55.246Z,23.48
2017-08-03T11:16:55.253Z,23.50
2017-08-03T11:17:55.249Z,23.53
2017-08-03T11:18:55.275Z,23.55
2017-08-03T11:19:55.247Z,23.55
2017-08-03T11:20:55.250Z,23.57
2017-08-03T11:21:55.272Z,23.56
2017-08-03T11:22:55.257Z,23.57
2017-08-03T11:23:55.260Z,23.53
2017-08-03T11:24:55.262Z,23.54
2017-08-03T11:25:55.265Z,23.54
2017-08-03T11:28:31.575Z,23.59
2017-08-03T11:28:55.272Z,23.70
2017-08-03T11:29:55.281Z,23.77
2017-08-03T11:30:55.279Z,23.85
2017-08-03T11:31:55.285Z,23.91
2017-08-03T11:32:55.287Z,23.98
2017-08-03T11:33:55.292Z,23.99
2017-08-03T11:34:55.301Z,24.05
2017-08-03T11:35:55.288Z,24.06
2017-08-03T11:36:55.291Z,24.10
2017-08-03T11:37:55.298Z,24.09
2017-08-03T11:38:55.307Z,24.13
2017-08-03T11:39:55.303Z,24.13
2017-08-03T11:40:55.310Z,24.11
2017-08-03T11:41:55.306Z,24.08
2017-08-03T11:42:55.313Z,24.05
2017-08-03T11:43:55.313Z,24.05
2017-08-03T11:44:55.314Z,24.07
2017-08-03T11:45:55.317Z,24.07
2017-08-03T11:46:55.319Z,24.11
2017-08-03T11:47:55.325Z,24.07
2017-08-03T11:48:55.326Z,24.06
2017-08-03T11:49:55.335Z,24.07
2017-08-03T11:50:55.332Z,24.08
2017-08-03T12:13:23.480Z,27.18
2017-08-03T12:13:55.406Z,27.46
2017-08-03T12:14:55.413Z,27.71
2017-08-03T12:15:55.406Z,27.72
2017-08-03T12:16:55.410Z,27.85
2017-08-03T12:17:55.416Z,27.87
2017-08-03T12:18:55.422Z,27.78
2017-08-03T12:19:55.420Z,28.09
2017-08-03T12:20:55.423Z,28.19
2017-08-03T12:21:55.428Z,28.13
2017-08-03T12:22:55.431Z,27.66
2017-08-03T12:23:55.428Z,27.43
2017-08-03T12:24:55.431Z,27.18
2017-08-03T12:25:55.435Z,26.81
2017-08-03T12:26:55.440Z,26.58
2017-08-03T12:27:55.441Z,26.47
2017-08-03T13:16:41.433Z,25.46
2017-08-03T13:16:55.578Z,25.49
2017-08-03T13:17:55.584Z,25.51
2017-08-03T13:18:55.584Z,25.55
2017-08-03T13:19:55.591Z,25.62
2017-08-03T13:20:55.601Z,25.70
2017-08-03T13:21:55.597Z,25.90
2017-08-03T13:22:55.603Z,26.15
2017-08-03T13:23:55.605Z,26.38
2017-08-03T13:24:55.603Z,26.58
2017-08-03T13:25:55.615Z,26.68
2017-08-03T13:26:55.609Z,26.83
2017-08-03T13:27:55.609Z,27.03
2017-08-03T13:28:55.612Z,27.09
2017-08-03T13:29:55.613Z,27.13
2017-08-03T13:30:55.617Z,27.06
2017-08-03T13:31:55.618Z,27.05
2017-08-03T13:32:55.621Z,27.01
2017-08-03T13:33:55.626Z,26.97
2017-08-03T13:34:55.631Z,27.03
2017-08-03T13:35:55.630Z,27.09
2017-08-03T13:36:55.630Z,27.05
2017-08-03T13:37:55.636Z,27.00
2017-08-03T13:38:55.634Z,27.03
2017-08-03T13:39:55.639Z,27.10
2017-08-03T13:40:55.646Z,27.12
2017-08-03T13:41:55.645Z,27.16
2017-08-03T13:42:55.656Z,27.13
2017-08-03T13:43:55.656Z,27.10
2017-08-03T13:44:55.655Z,27.04
2017-08-03T13:45:55.655Z,27.09
2017-08-03T13:46:55.667Z,27.13
2017-08-03T13:47:55.663Z,27.18
2017-08-03T13:48:55.668Z,27.23
2017-08-03T13:49:55.674Z,27.26
2017-08-03T13:50:55.672Z,27.28
2017-08-03T13:51:55.679Z,27.22
2017-08-03T13:52:55.679Z,27.15
2017-08-03T13:53:55.690Z,27.05
2017-08-03T13:54:55.681Z,27.10
2017-08-03T13:55:55.685Z,27.15
2017-08-03T13:56:55.690Z,27.22
2017-08-03T13:57:55.688Z,27.27
2017-08-03T13:58:55.695Z,27.30
2017-08-03T13:59:55.697Z,27.33
2017-08-03T14:00:55.698Z,27.33
2017-08-03T14:01:55.711Z,27.31
2017-08-03T14:02:55.706Z,27.32
2017-08-03T14:03:55.711Z,27.27
2017-08-03T14:04:55.711Z,27.33
2017-08-03T14:05:55.723Z,27.34
2017-08-03T14:06:55.716Z,27.33
2017-08-03T14:07:55.746Z,27.29
2017-08-03T14:08:55.722Z,27.29
2017-08-03T14:09:55.726Z,27.32
2017-08-03T14:10:55.744Z,27.33
2017-08-03T14:11:55.733Z,27.34
2017-08-03T14:12:55.739Z,27.33
2017-08-03T14:13:55.740Z,27.30
2017-08-03T14:14:55.738Z,27.32
2017-08-03T14:15:55.741Z,27.26
2017-08-03T14:16:55.752Z,27.27
2017-08-03T14:17:55.750Z,27.30
2017-08-03T14:18:55.759Z,27.34
2017-08-03T14:19:55.758Z,27.32
2017-08-03T14:20:55.763Z,27.36
2017-08-03T14:21:55.763Z,27.42
2017-08-03T14:22:55.762Z,27.39
2017-08-03T14:23:55.794Z,27.39